createdAt,value
2022-11-04T00:08:25.961Z,11.1
2022-11-04T00:10:32.519Z,11.1
2022-11-04T00:12:44.124Z,11.1
2022-11-04T00:27:40.090Z,11.1
2022-11-04T00:29:51.389Z,11.1
2022-11-04T00:38:11.932Z,11.1
2022-11-04T00:39:16.382Z,11.2
2022-11-04T00:40:20.991Z,11.2
2022-11-04T00:41:26.204Z,11.2
2022-11-04T00:42:30.265Z,11.2
2022-11-04T01:25:49.093Z,11.6
2022-11-04T01:26:53.675Z,11.5
2022-11-04T01:27:58.258Z,11.6
2022-11-04T01:29:03.298Z,11.6
2022-11-04T02:41:53.203Z,11.7
2022-11-04T02:42:57.507Z,11.8
2022-11-04T02:44:01.771Z,11.9
2022-11-04T02:45:13.822Z,11.9
2022-11-04T02:46:23.479Z,11.9
2022-11-04T04:50:20.513Z,11.9
2022-11-04T04:51:24.872Z,10.5
2022-11-04T04:52:28.917Z,10.5
2022-11-04T04:55:11.154Z,10.5
2022-11-04T04:57:17.722Z,10.5
2022-11-04T04:59:34.006Z,10.5
2022-11-04T05:01:40.389Z,10.5
2022-11-04T05:03:46.881Z,10.5
2022-11-04T05:25:25.995Z,10.5
2022-11-04T05:26:30.840Z,10.6
2022-11-04T05:27:35.764Z,10.6
2022-11-04T05:28:40.196Z,10.6
2022-11-04T05:29:45.201Z,10.6
2022-11-04T05:38:36.603Z,10.6
2022-11-04T05:40:42.673Z,10.6
2022-11-04T06:08:07.934Z,11
2022-11-04T06:10:14.195Z,11
2022-11-04T06:22:10.979Z,11
2022-11-04T06:24:17.311Z,11
2022-11-04T06:26:27.807Z,11
2022-11-04T06:41:51.564Z,11
2022-11-04T06:43:56.791Z,11
2022-11-04T06:46:03.500Z,11
2022-11-04T06:55:43.780Z,11.3
2022-11-04T06:57:50.321Z,11.3
2022-11-04T07:01:03.872Z,11.3
2022-11-04T07:02:06.829Z,11.4
2022-11-04T07:03:11.600Z,11.4
2022-11-04T07:05:17.892Z,11.4
2022-11-04T07:17:25.641Z,11.4
2022-11-04T07:18:30.171Z,11.5
2022-11-04T07:19:35.704Z,11.5
2022-11-04T07:20:45.313Z,11.4
2022-11-04T07:21:49.665Z,11.5
2022-11-04T07:22:54.228Z,11.6
2022-11-04T07:23:58.649Z,11.6
2022-11-04T07:25:02.768Z,11.6
2022-11-04T07:26:07.531Z,11.6
2022-11-04T07:27:12.078Z,11.6
2022-11-04T07:28:16.624Z,11.5
2022-11-04T07:29:20.727Z,11.6
2022-11-04T07:30:26.079Z,11.6
2022-11-04T07:31:30.424Z,11.7
2022-11-04T07:32:34.554Z,11.6
2022-11-04T07:33:38.608Z,11.6
2022-11-04T07:34:43.351Z,11.7
2022-11-04T07:35:47.795Z,11.7
2022-11-04T07:36:52.079Z,11.6
2022-11-04T07:37:56.575Z,11.7
2022-11-04T07:39:00.623Z,11.7
2022-11-04T07:40:05.137Z,11.8
2022-11-04T07:41:10.275Z,11.8
2022-11-04T07:42:14.754Z,11.8
2022-11-04T07:43:19.184Z,11.8
2022-11-04T07:44:23.428Z,11.8
2022-11-04T07:45:27.636Z,11.8
2022-11-04T07:46:32.208Z,11.8
2022-11-04T07:47:36.359Z,11.8
2022-11-04T07:48:40.443Z,11.8
2022-11-04T07:49:44.608Z,11.9
2022-11-04T07:50:49.055Z,11.9
2022-11-04T07:51:53.243Z,11.9
2022-11-04T07:52:57.852Z,11.9
2022-11-04T07:54:02.187Z,11.9
2022-11-04T07:55:06.343Z,12
2022-11-04T07:56:10.996Z,12
2022-11-04T07:57:15.572Z,12
2022-11-04T07:58:20.107Z,12
2022-11-04T07:59:24.212Z,12
2022-11-04T08:00:28.333Z,12
2022-11-04T08:01:32.929Z,12
2022-11-04T08:02:37.242Z,12
2022-11-04T08:03:41.465Z,12
2022-11-04T08:04:45.919Z,12.1
2022-11-04T08:05:50.328Z,12.1
2022-11-04T08:06:57.543Z,12.1
2022-11-04T08:08:01.988Z,12.1
2022-11-04T08:09:06.890Z,12.2
2022-11-04T08:10:11.148Z,12.1
2022-11-04T08:11:17.581Z,12.2
2022-11-04T08:12:19.312Z,12.2
2022-11-04T08:13:23.443Z,12.3
2022-11-04T08:14:28.045Z,12.3
2022-11-04T08:15:32.676Z,12.4
2022-11-04T08:16:37.231Z,12.4
2022-11-04T08:17:41.271Z,12.4
2022-11-04T08:18:45.434Z,12.4
2022-11-04T08:19:49.480Z,12.4
2022-11-04T08:20:53.643Z,12.4
2022-11-04T08:21:58.191Z,12.4
2022-11-04T08:23:02.527Z,12.5
2022-11-04T08:24:06.681Z,12.5
2022-11-04T08:25:10.849Z,12.5
2022-11-04T08:26:15.401Z,12.5
2022-11-04T08:27:19.947Z,12.5
2022-11-04T08:28:24.043Z,12.5
2022-11-04T08:29:28.097Z,12.5
2022-11-04T08:30:32.736Z,12.5
2022-11-04T08:31:36.840Z,12.4
2022-11-04T08:32:40.990Z,12.3
2022-11-04T08:33:45.499Z,12.2
2022-11-04T08:34:49.626Z,12.3
2022-11-04T08:35:53.656Z,12.4
2022-11-04T08:36:57.765Z,12.5
2022-11-04T08:38:01.801Z,12.5
2022-11-04T08:39:10.543Z,12.6
2022-11-04T08:40:10.400Z,12.6
2022-11-04T08:41:14.552Z,12.7
2022-11-04T08:42:19.196Z,12.7
2022-11-04T08:43:23.662Z,12.7
2022-11-04T08:44:27.787Z,12.8
2022-11-04T08:45:33.749Z,12.8
2022-11-04T08:46:39.117Z,12.8
2022-11-04T08:47:43.597Z,12.8
2022-11-04T08:48:47.821Z,12.8
2022-11-04T08:49:52.425Z,12.8
2022-11-04T08:50:56.901Z,12.8
2022-11-04T08:52:01.013Z,12.9
2022-11-04T08:53:05.406Z,12.9
2022-11-04T08:54:10.081Z,12.9
2022-11-04T08:55:14.549Z,12.9
2022-11-04T08:56:18.605Z,12.9
2022-11-04T08:57:22.757Z,12.9
2022-11-04T08:58:27.086Z,12.9
2022-11-04T08:59:31.487Z,12.9
2022-11-04T09:00:35.697Z,12.9
2022-11-04T09:01:40.223Z,13
2022-11-04T09:02:44.726Z,13
2022-11-04T09:03:48.864Z,13
2022-11-04T09:04:53.337Z,13
2022-11-04T09:05:57.507Z,13.1
2022-11-04T09:07:06.884Z,13.1
2022-11-04T09:08:06.453Z,13.2
2022-11-04T09:09:13.721Z,13.2
2022-11-04T09:10:18.281Z,13.1
2022-11-04T09:11:22.898Z,13
2022-11-04T09:12:27.520Z,13
2022-11-04T09:13:35.504Z,12.8
2022-11-04T09:14:36.817Z,12.9
2022-11-04T09:15:41.447Z,12.9
2022-11-04T09:16:45.949Z,13
2022-11-04T09:17:50.925Z,13.1
2022-11-04T09:18:54.943Z,13.1
2022-11-04T09:19:59.081Z,13.2
2022-11-04T09:21:03.534Z,13.3
2022-11-04T09:22:08.361Z,13.3
2022-11-04T09:23:12.379Z,13.3
2022-11-04T09:24:16.911Z,13.5
2022-11-04T09:25:21.561Z,13.2
2022-11-04T09:26:25.895Z,13.2
2022-11-04T09:27:30.096Z,13.5
2022-11-04T09:28:34.765Z,13.5
2022-11-04T09:29:39.202Z,13.3
2022-11-04T09:30:43.326Z,13.4
2022-11-04T09:31:47.409Z,13.4
2022-11-04T09:32:52.842Z,13.5
2022-11-04T09:33:56.192Z,13.7
2022-11-04T09:35:00.596Z,13.6
2022-11-04T09:36:05.055Z,13.7
2022-11-04T09:37:09.657Z,13.8
2022-11-04T09:38:14.404Z,13.6
2022-11-04T09:39:18.815Z,13.6
2022-11-04T09:40:23.464Z,13.7
2022-11-04T09:41:27.994Z,13.7
2022-11-04T09:42:40.215Z,13.6
2022-11-04T09:43:50.008Z,13.7
2022-11-04T09:46:06.594Z,13.8
2022-11-04T09:47:11.341Z,13.9
2022-11-04T09:48:15.806Z,13.9
2022-11-04T09:49:19.833Z,13.9
2022-11-04T09:50:24.460Z,13.8
2022-11-04T09:51:53.003Z,14
2022-11-04T09:52:36.145Z,13.9
2022-11-04T09:53:40.485Z,13.9
2022-11-04T09:54:47.379Z,14
2022-11-04T09:55:57.126Z,14
2022-11-04T09:57:01.729Z,13.9
2022-11-04T09:58:06.220Z,14
2022-11-04T09:59:10.857Z,13.8
2022-11-04T10:00:15.459Z,13.9
2022-11-04T10:01:20.017Z,13.8
2022-11-04T10:02:24.039Z,13.9
2022-11-04T10:03:33.804Z,13.9
2022-11-04T10:04:43.395Z,13.9
2022-11-04T10:05:50.632Z,13.9
2022-11-04T10:07:02.721Z,13.9
2022-11-04T10:08:07.397Z,13.9
2022-11-04T10:09:22.234Z,14
2022-11-04T10:10:34.234Z,13.9
2022-11-04T10:11:44.072Z,13.9
2022-11-04T10:12:53.829Z,13.9
2022-11-04T10:14:06.421Z,14
2022-11-04T10:15:19.108Z,14.1
2022-11-04T10:16:31.265Z,14
2022-11-04T10:17:41.049Z,14
2022-11-04T10:18:55.766Z,14.1
2022-11-04T10:20:10.520Z,14.1
2022-11-04T10:21:18.013Z,14.2
2022-11-04T10:22:25.253Z,14.1
2022-11-04T10:23:33.068Z,14.1
2022-11-04T10:24:42.644Z,14.2
2022-11-04T10:25:57.353Z,14.3
2022-11-04T10:27:04.347Z,14.2
2022-11-04T10:28:17.009Z,14.1
2022-11-04T10:29:21.157Z,14.2
2022-11-04T10:30:33.926Z,14.2
2022-11-04T10:31:38.558Z,14.2
2022-11-04T10:32:43.168Z,14.3
2022-11-04T10:33:52.744Z,14.3
2022-11-04T10:34:56.825Z,14.4
2022-11-04T10:36:06.449Z,14.3
2022-11-04T10:37:11.023Z,14.2
2022-11-04T10:38:15.181Z,14.2
2022-11-04T10:39:29.999Z,14.4
2022-11-04T10:40:34.717Z,14.4
2022-11-04T10:41:38.684Z,14.3
2022-11-04T10:42:43.257Z,14.3
2022-11-04T10:43:47.829Z,14.3
2022-11-04T10:44:52.328Z,14.4
2022-11-04T10:45:56.505Z,14.4
2022-11-04T10:47:08.549Z,14.4
2022-11-04T10:48:23.320Z,14.4
2022-11-04T10:49:33.101Z,14.5
2022-11-04T10:50:42.728Z,14.5
2022-11-04T10:51:49.993Z,14.5
2022-11-04T10:52:54.628Z,14.5
2022-11-04T10:54:09.206Z,14.3
2022-11-04T10:55:13.713Z,14.3
2022-11-04T10:56:26.096Z,14.4
2022-11-04T10:57:40.952Z,14.4
2022-11-04T10:58:45.316Z,14.4
2022-11-04T10:59:49.529Z,14.3
2022-11-04T11:01:00.257Z,14.2
2022-11-04T11:02:14.881Z,14.2
2022-11-04T11:03:18.845Z,14.3
2022-11-04T11:04:25.992Z,14.4
2022-11-04T11:05:33.197Z,14.3
2022-11-04T11:06:37.745Z,14.4
2022-11-04T11:07:41.985Z,14.4
2022-11-04T11:08:46.508Z,14.5
2022-11-04T11:09:53.714Z,14.5
2022-11-04T11:10:55.138Z,14.5
2022-11-04T11:11:59.325Z,14.5
2022-11-04T11:13:03.705Z,14.6
2022-11-04T11:14:08.814Z,14.6
2022-11-04T11:15:18.528Z,14.7
2022-11-04T11:16:27.858Z,14.7
2022-11-04T11:17:32.553Z,14.7
2022-11-04T11:18:36.880Z,14.7
2022-11-04T11:19:41.477Z,14.8
2022-11-04T11:20:48.636Z,14.8
2022-11-04T11:21:53.227Z,14.8
2022-11-04T11:23:01.995Z,14.8
2022-11-04T11:24:01.446Z,14.7
2022-11-04T11:25:06.037Z,14.7
2022-11-04T11:26:13.556Z,14.8
2022-11-04T11:27:20.592Z,14.9
2022-11-04T11:28:25.289Z,14.9
2022-11-04T11:29:29.518Z,14.9
2022-11-04T11:30:34.516Z,15
2022-11-04T11:31:44.233Z,15
2022-11-04T11:32:48.824Z,15
2022-11-04T11:33:53.442Z,15
2022-11-04T11:34:57.992Z,15
2022-11-04T11:36:02.682Z,14.9
2022-11-04T11:37:10.387Z,15
2022-11-04T11:38:20.424Z,15
2022-11-04T11:39:27.974Z,15
2022-11-04T11:40:32.489Z,15
2022-11-04T11:41:41.054Z,15
2022-11-04T11:42:48.916Z,15
2022-11-04T11:43:53.940Z,15
2022-11-04T11:45:08.662Z,15
2022-11-04T11:46:13.489Z,15
2022-11-04T11:47:25.651Z,15
2022-11-04T11:48:30.077Z,15
2022-11-04T11:49:39.335Z,15
2022-11-04T11:50:43.844Z,14.9
2022-11-04T11:51:48.516Z,14.8
2022-11-04T11:52:53.189Z,14.8
2022-11-04T11:53:57.685Z,14.9
2022-11-04T11:55:02.328Z,15
2022-11-04T11:56:16.948Z,15
2022-11-04T11:57:25.580Z,15
2022-11-04T12:00:56.865Z,15.1
2022-11-04T12:02:02.452Z,15
2022-11-04T12:03:18.164Z,14.9
2022-11-04T12:10:07.343Z,15
2022-11-04T12:11:14.648Z,15
2022-11-04T12:12:21.730Z,15
2022-11-04T12:13:31.750Z,15
2022-11-04T12:14:43.652Z,15
2022-11-04T12:15:56.338Z,15
2022-11-04T12:17:06.160Z,15
2022-11-04T12:18:13.216Z,15
2022-11-04T12:19:28.145Z,15.1
2022-11-04T12:20:38.321Z,15
2022-11-04T12:21:52.977Z,15
2022-11-04T12:23:02.663Z,14.9
2022-11-04T12:24:12.440Z,14.8
2022-11-04T12:25:16.860Z,14.9
2022-11-04T12:26:29.145Z,15
2022-11-04T12:27:38.776Z,15
2022-11-04T12:28:48.516Z,14.9
2022-11-04T12:29:58.169Z,15
2022-11-04T12:31:05.872Z,15
2022-11-04T12:32:15.419Z,15
2022-11-04T12:33:30.165Z,15.1
2022-11-04T12:34:40.023Z,15
2022-11-04T12:35:54.652Z,15.1
2022-11-04T12:37:07.672Z,15
2022-11-04T12:38:20.091Z,15
2022-11-04T12:39:34.764Z,15
2022-11-04T12:40:54.597Z,15
2022-11-04T12:43:09.255Z,15
2022-11-04T12:44:18.508Z,15
2022-11-04T12:45:28.832Z,14.9
2022-11-04T12:46:41.671Z,14.9
2022-11-04T12:47:54.195Z,15
2022-11-04T12:49:06.083Z,14.9
2022-11-04T12:50:16.121Z,14.9
2022-11-04T12:51:30.920Z,14.9
2022-11-04T12:52:38.148Z,14.9
2022-11-04T12:53:50.311Z,14.9
2022-11-04T12:54:54.300Z,14.9
2022-11-04T12:56:09.069Z,14.9
2022-11-04T12:57:13.639Z,14.9
2022-11-04T12:58:23.460Z,14.9
2022-11-04T12:59:38.207Z,14.9
2022-11-04T13:00:47.971Z,14.9
2022-11-04T13:01:52.700Z,14.9
2022-11-04T13:02:57.036Z,14.8
2022-11-04T13:04:01.655Z,14.8
2022-11-04T13:05:11.216Z,14.8
2022-11-04T13:06:23.563Z,14.9
2022-11-04T13:07:28.190Z,14.9
2022-11-04T13:08:40.319Z,14.9
2022-11-04T13:09:50.634Z,14.9
2022-11-04T13:10:55.295Z,14.9
2022-11-04T13:11:59.818Z,14.9
2022-11-04T13:13:04.363Z,14.8
2022-11-04T13:14:08.914Z,14.9
2022-11-04T13:15:13.474Z,14.8
2022-11-04T13:16:18.083Z,14.8
2022-11-04T13:17:22.743Z,14.9
2022-11-04T13:18:27.342Z,14.9
2022-11-04T13:19:31.855Z,14.9
2022-11-04T13:20:44.074Z,14.9
2022-11-04T13:21:48.263Z,14.9
2022-11-04T13:22:52.842Z,14.9
2022-11-04T13:23:57.334Z,14.9
2022-11-04T13:25:07.895Z,14.9
2022-11-04T13:26:22.780Z,14.9
2022-11-04T13:27:27.264Z,14.9
2022-11-04T13:28:32.094Z,14.9
2022-11-04T13:29:36.495Z,14.9
2022-11-04T13:30:40.618Z,14.8
2022-11-04T13:31:52.973Z,14.8
2022-11-04T13:33:00.765Z,14.8
2022-11-04T13:34:13.306Z,14.8
2022-11-04T13:35:17.780Z,14.8
2022-11-04T13:36:30.082Z,14.8
2022-11-04T13:37:34.567Z,14.8
2022-11-04T13:38:41.750Z,14.8
2022-11-04T13:39:46.336Z,14.8
2022-11-04T13:40:50.999Z,14.8
2022-11-04T13:42:05.549Z,14.8
2022-11-04T13:43:10.503Z,14.8
2022-11-04T13:44:24.939Z,14.8
2022-11-04T13:45:29.558Z,14.8
2022-11-04T13:46:34.116Z,14.8
2022-11-04T13:47:38.307Z,14.8
2022-11-04T13:48:49.079Z,14.8
2022-11-04T13:49:58.614Z,14.7
2022-11-04T13:51:02.770Z,14.7
2022-11-04T13:52:07.146Z,14.8
2022-11-04T13:53:11.611Z,14.8
2022-11-04T13:54:15.474Z,14.8
2022-11-04T13:55:27.663Z,14.8
2022-11-04T13:56:33.661Z,14.8
2022-11-04T13:57:38.915Z,14.8
2022-11-04T13:58:48.631Z,14.7
2022-11-04T13:59:52.663Z,14.7
2022-11-04T14:01:07.358Z,14.7
2022-11-04T14:02:14.557Z,14.7
2022-11-04T14:03:21.673Z,14.7
2022-11-04T14:04:29.304Z,14.7
2022-11-04T14:05:33.411Z,14.7
2022-11-04T14:06:37.518Z,14.7
2022-11-04T14:07:47.230Z,14.7
2022-11-04T14:08:56.901Z,14.6
2022-11-04T14:10:11.563Z,14.6
2022-11-04T14:11:26.380Z,14.6
2022-11-04T14:12:31.113Z,14.7
2022-11-04T14:13:35.535Z,14.7
2022-11-04T14:14:42.690Z,14.6
2022-11-04T14:15:46.880Z,14.6
2022-11-04T14:17:01.586Z,14.6
2022-11-04T14:18:10.563Z,14.6
2022-11-04T14:19:10.563Z,14.6
2022-11-04T14:20:25.394Z,14.6
2022-11-04T14:21:29.499Z,14.6
2022-11-04T14:22:34.287Z,14.6
2022-11-04T14:23:43.760Z,14.6
2022-11-04T14:24:53.474Z,14.6
2022-11-04T14:25:57.562Z,14.6
2022-11-04T14:27:04.762Z,14.6
2022-11-04T14:28:09.195Z,14.5
2022-11-04T14:29:16.379Z,14.4
2022-11-04T14:30:23.994Z,14.4
2022-11-04T14:31:31.124Z,14.5
2022-11-04T14:32:38.351Z,14.5
2022-11-04T14:33:42.863Z,14.5
2022-11-04T14:34:52.447Z,14.5
2022-11-04T14:35:59.145Z,14.5
2022-11-04T14:37:13.797Z,14.5
2022-11-04T14:38:23.500Z,14.5
2022-11-04T14:39:30.659Z,14.5
2022-11-04T14:40:40.383Z,14.5
2022-11-04T14:41:47.546Z,14.5
2022-11-04T14:42:57.187Z,14.4
2022-11-04T14:44:01.279Z,14.4
2022-11-04T14:45:08.246Z,14.4
2022-11-04T14:46:12.443Z,14.3
2022-11-04T14:47:19.545Z,14.3
2022-11-04T14:48:27.178Z,14.3
2022-11-04T14:49:31.379Z,14.3
2022-11-04T14:50:40.971Z,14.3
2022-11-04T14:51:45.754Z,14.3
2022-11-04T14:52:50.238Z,14.4
2022-11-04T14:53:59.879Z,14.4
2022-11-04T14:55:09.590Z,14.3
2022-11-04T14:56:23.705Z,14.4
2022-11-04T14:57:24.383Z,14.4
2022-11-04T14:58:28.819Z,14.4
2022-11-04T14:59:32.990Z,14.4
2022-11-04T15:00:37.686Z,14.4
2022-11-04T15:01:50.441Z,14.4
2022-11-04T15:02:55.986Z,14.4
2022-11-04T15:04:11.918Z,14.4
2022-11-04T15:05:20.950Z,14.3
2022-11-04T15:06:35.123Z,14.3
2022-11-04T15:07:33.114Z,14.3
2022-11-04T15:08:40.278Z,14.3
2022-11-04T15:09:44.372Z,14.3
2022-11-04T15:10:48.524Z,14.3
2022-11-04T15:11:53.155Z,14.3
2022-11-04T15:13:02.870Z,14.3
2022-11-04T15:14:07.526Z,14.3
2022-11-04T15:15:14.399Z,14.3
2022-11-04T15:16:30.174Z,14.2
2022-11-04T15:17:34.862Z,14.2
2022-11-04T15:18:39.446Z,14.2
2022-11-04T15:19:44.090Z,14.2
2022-11-04T15:20:48.510Z,14.2
2022-11-04T15:21:58.914Z,14.2
2022-11-04T15:23:03.056Z,14.2
2022-11-04T15:24:07.361Z,14.2
2022-11-04T15:25:11.779Z,14.2
2022-11-04T15:26:16.083Z,14.2
2022-11-04T15:27:27.458Z,14.1
2022-11-04T15:28:32.259Z,14.1
2022-11-04T15:29:36.788Z,14
2022-11-04T15:30:41.534Z,14.1
2022-11-04T15:31:46.363Z,14.1
2022-11-04T15:32:56.020Z,14.1
2022-11-04T15:34:00.444Z,14.1
2022-11-04T15:35:04.629Z,14.1
2022-11-04T15:36:09.081Z,14.1
2022-11-04T15:37:19.280Z,14.1
2022-11-04T15:38:24.141Z,14
2022-11-04T15:39:28.404Z,14
2022-11-04T15:40:33.008Z,14.1
2022-11-04T15:41:38.511Z,14.1
2022-11-04T15:42:46.893Z,14.1
2022-11-04T15:43:51.397Z,14.1
2022-11-04T15:44:56.310Z,14
2022-11-04T15:46:00.708Z,14
2022-11-04T15:47:07.037Z,14
2022-11-04T15:48:18.237Z,14
2022-11-04T15:49:30.596Z,14
2022-11-04T15:50:37.721Z,14
2022-11-04T15:51:41.880Z,14
2022-11-04T15:52:46.485Z,14
2022-11-04T15:53:54.093Z,13.9
2022-11-04T15:54:58.164Z,13.9
2022-11-04T15:56:02.338Z,13.9
2022-11-04T15:57:06.854Z,13.9
2022-11-04T15:58:21.504Z,13.9
2022-11-04T15:59:26.024Z,13.9
2022-11-04T16:00:32.939Z,13.9
2022-11-04T16:01:37.627Z,13.9
2022-11-04T16:02:47.261Z,13.9
2022-11-04T16:03:56.802Z,13.9
2022-11-04T16:05:00.940Z,13.9
2022-11-04T16:06:07.973Z,13.9
2022-11-04T16:07:12.505Z,13.9
2022-11-04T16:08:16.580Z,13.8
2022-11-04T16:09:20.959Z,13.8
2022-11-04T16:10:27.910Z,13.8
2022-11-04T16:11:35.203Z,13.8
2022-11-04T16:12:39.599Z,13.7
2022-11-04T16:13:43.808Z,13.6
2022-11-04T16:14:48.477Z,13.6
2022-11-04T16:15:53.048Z,13.6
2022-11-04T16:16:57.736Z,13.6
2022-11-04T16:18:02.155Z,13.6
2022-11-04T16:19:06.317Z,13.6
2022-11-04T16:20:10.726Z,13.6
2022-11-04T16:21:15.440Z,13.6
2022-11-04T16:22:30.064Z,13.6
2022-11-04T16:23:37.364Z,13.6
2022-11-04T16:24:45.149Z,13.6
2022-11-04T16:25:49.773Z,13.6
2022-11-04T16:27:00.350Z,13.6
2022-11-04T16:28:04.976Z,13.6
2022-11-04T16:29:09.432Z,13.6
2022-11-04T16:30:17.041Z,13.6
2022-11-04T16:31:21.584Z,13.6
2022-11-04T16:32:28.795Z,13.6
2022-11-04T16:33:43.577Z,13.6
2022-11-04T16:34:47.714Z,13.6
2022-11-04T16:35:52.215Z,13.6
2022-11-04T16:36:56.480Z,13.6
2022-11-04T16:38:01.308Z,13.6
2022-11-04T16:39:05.736Z,13.6
2022-11-04T16:40:10.191Z,13.6
2022-11-04T16:41:14.740Z,13.6
2022-11-04T16:42:19.316Z,13.6
2022-11-04T16:43:23.925Z,13.6
2022-11-04T16:44:28.689Z,13.6
2022-11-04T16:45:33.272Z,13.6
2022-11-04T16:46:37.783Z,13.5
2022-11-04T16:47:42.988Z,13.5
2022-11-04T16:48:47.521Z,13.5
2022-11-04T16:49:52.104Z,13.5
2022-11-04T16:51:01.680Z,13.5
2022-11-04T16:52:06.075Z,13.5
2022-11-04T16:53:10.709Z,13.5
2022-11-04T16:54:15.025Z,13.5
2022-11-04T16:55:19.580Z,13.5
2022-11-04T16:56:24.192Z,13.4
2022-11-04T16:57:28.748Z,13.5
2022-11-04T16:58:33.464Z,13.3
2022-11-04T16:59:38.133Z,13.4
2022-11-04T17:00:42.561Z,13.4
2022-11-04T17:01:47.327Z,13.3
2022-11-04T17:02:51.783Z,13.3
2022-11-04T17:03:56.331Z,13.4
2022-11-04T17:05:01.112Z,13.4
2022-11-04T17:06:05.743Z,13.4
2022-11-04T17:07:10.224Z,13.4
2022-11-04T17:08:14.700Z,13.4
2022-11-04T17:09:21.835Z,13.4
2022-11-04T17:10:26.782Z,13.4
2022-11-04T17:11:31.068Z,13.4
2022-11-04T17:12:35.836Z,13.3
2022-11-04T17:13:40.328Z,13.3
2022-11-04T17:14:44.756Z,13.3
2022-11-04T17:15:49.341Z,13.3
2022-11-04T17:16:54.091Z,13.3
2022-11-04T17:18:00.032Z,13.4
2022-11-04T17:19:08.505Z,13.3
2022-11-04T17:20:16.684Z,13.3
2022-11-04T17:21:21.990Z,13.4
2022-11-04T17:22:28.911Z,13.4
2022-11-04T17:23:35.361Z,13.4
2022-11-04T17:24:41.239Z,13.3
2022-11-04T17:25:46.327Z,13.3
2022-11-04T17:26:50.491Z,13.3
2022-11-04T17:27:55.619Z,13.3
2022-11-04T17:29:00.414Z,13.3
2022-11-04T17:30:04.806Z,13.3
2022-11-04T17:31:09.679Z,13.3
2022-11-04T17:32:14.013Z,13.3
2022-11-04T17:33:18.767Z,13.2
2022-11-04T17:34:23.170Z,13.3
2022-11-04T17:35:27.542Z,13.3
2022-11-04T17:36:31.736Z,13.2
2022-11-04T17:37:36.462Z,13.2
2022-11-04T17:38:41.108Z,13.2
2022-11-04T17:39:45.779Z,13.3
2022-11-04T17:40:50.248Z,13.3
2022-11-04T17:41:59.842Z,13.2
2022-11-04T17:43:12.145Z,13.2
2022-11-04T17:44:19.098Z,13.2
2022-11-04T17:45:23.371Z,13.1
2022-11-04T17:46:27.768Z,13.2
2022-11-04T17:47:34.999Z,13.1
2022-11-04T17:48:39.635Z,13.2
2022-11-04T17:49:44.447Z,13.2
2022-11-04T17:50:49.127Z,13.2
2022-11-04T17:51:53.592Z,13.2
2022-11-04T17:52:57.867Z,13.1
2022-11-04T17:54:02.102Z,13.2
2022-11-04T17:55:07.611Z,13.2
2022-11-04T17:56:11.356Z,13.3
2022-11-04T17:57:15.727Z,13.3
2022-11-04T17:58:20.255Z,13.3
2022-11-04T17:59:24.890Z,13.3
2022-11-04T18:00:29.917Z,13.3
2022-11-04T18:01:34.404Z,13.3
2022-11-04T18:02:42.932Z,13.3
2022-11-04T18:03:47.382Z,13.3
2022-11-04T18:04:52.083Z,13.2
2022-11-04T18:05:56.946Z,13.3
2022-11-04T18:07:03.376Z,13.3
2022-11-04T18:08:08.663Z,13.3
2022-11-04T18:09:13.338Z,13.3
2022-11-04T18:10:17.983Z,13.3
2022-11-04T18:11:22.608Z,13.3
2022-11-04T18:12:32.287Z,13.3
2022-11-04T18:13:39.378Z,13.3
2022-11-04T18:14:44.178Z,13.3
2022-11-04T18:15:48.870Z,13.2
2022-11-04T18:16:53.234Z,13.2
2022-11-04T18:17:58.607Z,13.2
2022-11-04T18:19:02.891Z,13.2
2022-11-04T18:20:13.283Z,13.2
2022-11-04T18:21:13.259Z,13.2
2022-11-04T18:22:18.099Z,13.1
2022-11-04T18:23:23.526Z,13.2
2022-11-04T18:24:28.453Z,13.2
2022-11-04T18:25:33.915Z,13.2
2022-11-04T18:26:38.634Z,13.2
2022-11-04T18:27:43.438Z,13.2
2022-11-04T18:28:47.719Z,13.2
2022-11-04T18:29:52.075Z,13.1
2022-11-04T18:30:56.575Z,13.1
2022-11-04T18:32:01.062Z,13.1
2022-11-04T18:33:05.706Z,13.1
2022-11-04T18:34:10.110Z,13.1
2022-11-04T18:35:14.770Z,13.1
2022-11-04T18:36:19.482Z,13.2
2022-11-04T18:37:23.993Z,13.1
2022-11-04T18:38:28.674Z,13.1
2022-11-04T18:39:33.074Z,13
2022-11-04T18:40:38.455Z,13.1
2022-11-04T18:41:44.018Z,13.1
2022-11-04T18:42:48.639Z,13.1
2022-11-04T18:43:52.994Z,13.1
2022-11-04T18:44:57.722Z,13.1
2022-11-04T18:46:02.319Z,13.1
2022-11-04T18:47:06.955Z,13
2022-11-04T18:48:11.665Z,13
2022-11-04T18:49:15.829Z,13
2022-11-04T18:50:19.944Z,13
2022-11-04T18:51:23.962Z,13
2022-11-04T18:52:28.306Z,13
2022-11-04T18:53:32.943Z,13
2022-11-04T18:54:37.523Z,12.9
2022-11-04T18:55:44.510Z,12.9
2022-11-04T18:56:48.744Z,12.9
2022-11-04T18:57:53.288Z,13
2022-11-04T18:58:57.786Z,13
2022-11-04T19:00:02.561Z,12.9
2022-11-04T19:01:07.479Z,12.9
2022-11-04T19:02:12.047Z,12.9
2022-11-04T19:04:26.275Z,13
2022-11-04T19:05:30.774Z,13
2022-11-04T19:06:35.335Z,12.9
2022-11-04T19:07:39.534Z,12.9
2022-11-04T19:08:46.780Z,12.9
2022-11-04T19:09:48.785Z,12.9
2022-11-04T19:11:00.961Z,12.9
2022-11-04T19:11:57.412Z,12.8
2022-11-04T19:13:07.180Z,12.8
2022-11-04T19:14:16.715Z,12.7
2022-11-04T19:15:21.303Z,12.8
2022-11-04T19:16:25.922Z,12.8
2022-11-04T19:17:30.575Z,12.8
2022-11-04T19:18:35.259Z,12.9
2022-11-04T19:19:39.668Z,12.9
2022-11-04T19:20:44.618Z,12.8
2022-11-04T19:21:49.134Z,12.8
2022-11-04T19:22:53.722Z,12.8
2022-11-04T19:23:58.183Z,12.8
2022-11-04T19:25:02.723Z,12.8
2022-11-04T19:26:07.326Z,12.8
2022-11-04T19:27:15.041Z,12.8
2022-11-04T19:28:35.010Z,12.9
2022-11-04T19:29:23.934Z,12.8
2022-11-04T19:30:28.251Z,12.8
2022-11-04T19:31:32.972Z,12.8
2022-11-04T19:32:37.494Z,12.8
2022-11-04T19:33:41.798Z,12.8
2022-11-04T19:34:46.214Z,12.8
2022-11-04T19:35:50.846Z,12.8
2022-11-04T19:36:55.599Z,12.9
2022-11-04T19:38:00.001Z,12.9
2022-11-04T19:39:04.443Z,12.8
2022-11-04T19:40:08.954Z,12.6
2022-11-04T19:41:13.702Z,12.6
2022-11-04T19:42:23.307Z,12.6
2022-11-04T19:43:32.928Z,12.6
2022-11-04T19:44:37.819Z,12.4
2022-11-04T19:45:42.010Z,12.5
2022-11-04T19:46:46.830Z,12.6
2022-11-04T19:47:51.374Z,12.5
2022-11-04T19:48:55.898Z,12.4
2022-11-04T19:50:00.104Z,12.4
2022-11-04T19:51:04.505Z,12.5
2022-11-04T19:52:08.840Z,12.6
2022-11-04T19:53:13.190Z,12.5
2022-11-04T19:54:17.902Z,12.7
2022-11-04T19:55:22.522Z,12.6
2022-11-04T19:56:27.190Z,12.6
2022-11-04T19:57:31.631Z,12.8
2022-11-04T19:58:35.698Z,12.8
2022-11-04T19:59:40.306Z,12.8
2022-11-04T20:00:45.130Z,12.8
2022-11-04T20:01:49.579Z,12.8
2022-11-04T20:02:53.795Z,12.7
2022-11-04T20:03:58.655Z,12.6
2022-11-04T20:05:03.270Z,12.7
2022-11-04T20:06:07.847Z,12.7
2022-11-04T20:07:12.490Z,12.7
2022-11-04T20:08:17.226Z,12.6
2022-11-04T20:09:21.931Z,12.6
2022-11-04T20:10:26.326Z,12.6
2022-11-04T20:11:31.026Z,12.6
2022-11-04T20:12:35.461Z,12.9
2022-11-04T20:13:45.611Z,12.6
2022-11-04T20:14:50.451Z,12.7
2022-11-04T20:15:54.758Z,12.7
2022-11-04T20:16:58.939Z,12.6
2022-11-04T20:18:03.746Z,12.6
2022-11-04T20:19:09.143Z,12.6
2022-11-04T20:20:13.742Z,12.7
2022-11-04T20:21:18.182Z,12.7
2022-11-04T20:22:22.427Z,12.7
2022-11-04T20:23:27.846Z,12.8
2022-11-04T20:24:32.586Z,12.8
2022-11-04T20:25:37.217Z,12.8
2022-11-04T20:26:41.680Z,12.6
2022-11-04T20:27:45.909Z,12.7
2022-11-04T20:28:50.432Z,12.7
2022-11-04T20:29:55.007Z,12.6
2022-11-04T20:30:59.606Z,12.8
2022-11-04T20:32:04.251Z,12.6
2022-11-04T20:33:08.780Z,12.6
2022-11-04T20:34:13.331Z,12.6
2022-11-04T20:35:18.034Z,12.7
2022-11-04T20:36:22.988Z,12.7
2022-11-04T20:37:27.666Z,12.7
2022-11-04T20:38:32.474Z,12.6
2022-11-04T20:39:36.894Z,12.5
2022-11-04T20:40:41.446Z,12.7
2022-11-04T20:41:46.078Z,12.5
2022-11-04T20:42:50.655Z,12.4
2022-11-04T20:43:55.338Z,12.5
2022-11-04T20:44:59.906Z,12.4
2022-11-04T20:46:04.526Z,12.5
2022-11-04T20:47:12.051Z,12.5
2022-11-04T20:48:16.616Z,12.4
2022-11-04T20:49:21.144Z,12.4
2022-11-04T20:50:25.420Z,12.4
2022-11-04T20:51:29.835Z,12.5
2022-11-04T20:52:34.087Z,12.5
2022-11-04T20:53:38.630Z,12.3
2022-11-04T20:54:43.208Z,12.5
2022-11-04T20:55:47.666Z,12.5
2022-11-04T20:56:51.990Z,12.4
2022-11-04T20:57:56.836Z,12.3
2022-11-04T20:59:01.027Z,12.6
2022-11-04T21:00:05.232Z,12.5
2022-11-04T21:01:09.924Z,12.4
2022-11-04T21:02:20.583Z,12.4
2022-11-04T21:03:24.906Z,12.3
2022-11-04T21:04:34.908Z,12.4
2022-11-04T21:05:34.166Z,12.6
2022-11-04T21:06:38.976Z,12.7
2022-11-04T21:07:43.491Z,12.7
2022-11-04T21:08:48.149Z,12.8
2022-11-04T21:09:52.776Z,12.7
2022-11-04T21:10:57.155Z,12.5
2022-11-04T21:12:01.302Z,12.6
2022-11-04T21:13:05.990Z,12.7
2022-11-04T21:14:10.574Z,12.6
2022-11-04T21:15:15.250Z,12.7
2022-11-04T21:16:24.957Z,12.7
2022-11-04T21:17:29.598Z,12.5
2022-11-04T21:18:33.930Z,12.5
2022-11-04T21:19:38.690Z,12.5
2022-11-04T21:20:43.389Z,12.4
2022-11-04T21:21:47.783Z,12.3
2022-11-04T21:22:52.434Z,12.1